Time;durP1;ratioP1;P1;durP2;ratioP2;P2;SDS_P1;SDS_P2;PMS_P1;PMS_P2;Temp;Humidity;BMP_temperature;BMP_pressure;BME280_temperature;BME280_humidity;BME280_pressure;Samples;Min_cycle;Max_cycle;Signal;HPM_P1;HPM_P2
2022/04/16 00:02:02;;;;;;;0.10;0.10;;;7.30;99.90;;;;;;5090737;28;20039;-81
2022/04/16 00:04:29;;;;;;;0.17;0.17;;;6.90;99.90;;;;;;5108763;28;20131;-80
2022/04/16 00:06:59;;;;;;;0.10;0.10;;;7.00;99.90;;;;;;5091076;28;20044;-79
2022/04/16 00:09:26;;;;;;;0.10;0.10;;;7.00;99.90;;;;;;5091386;28;20128;-81
2022/04/16 00:11:53;;;;;;;0.10;0.10;;;7.10;99.90;;;;;;5091108;28;20127;-79
2022/04/16 00:14:19;;;;;;;0.10;0.10;;;7.10;99.90;;;;;;5091200;28;20059;-81
2022/04/16 00:16:46;;;;;;;0.13;0.13;;;7.10;99.90;;;;;;5090915;28;20378;-79
2022/04/16 00:19:14;;;;;;;0.10;0.10;;;7.10;99.90;;;;;;5090893;28;20493;-81
2022/04/16 00:21:41;;;;;;;0.10;0.10;;;7.10;99.90;;;;;;5090854;28;20435;-82
2022/04/16 00:24:07;;;;;;;0.10;0.10;;;7.10;99.90;;;;;;5107133;28;20046;-79
2022/04/16 00:26:40;;;;;;;0.10;0.10;;;7.10;99.90;;;;;;5090453;28;20040;-79
2022/04/16 00:29:08;;;;;;;0.10;0.10;;;7.10;99.90;;;;;;5107258;28;20044;-79
2022/04/16 00:31:36;;;;;;;0.20;0.20;;;7.10;99.90;;;;;;5090888;28;20105;-81
2022/04/16 00:34:03;;;;;;;0.10;0.10;;;7.00;99.90;;;;;;5073858;28;20041;-81
2022/04/16 00:36:29;;;;;;;0.10;0.10;;;7.00;99.90;;;;;;5090046;28;20106;-81
2022/04/16 00:38:56;;;;;;;0.10;0.10;;;6.90;99.90;;;;;;5090500;28;20048;-79
2022/04/16 00:41:23;;;;;;;0.10;0.10;;;7.00;99.90;;;;;;5090283;28;20036;-82
2022/04/16 00:43:52;;;;;;;0.10;0.10;;;6.90;99.90;;;;;;5090405;28;20115;-79
2022/04/16 00:46:19;;;;;;;0.10;0.10;;;6.90;99.90;;;;;;5089927;28;20104;-82
2022/04/16 00:48:46;;;;;;;0.10;0.10;;;6.90;99.90;;;;;;5106834;28;20043;-82
2022/04/16 00:51:14;;;;;;;0.10;0.10;;;6.90;99.90;;;;;;5090350;28;20124;-81
2022/04/16 00:53:40;;;;;;;0.20;0.20;;;6.90;99.90;;;;;;5090239;28;20040;-81
2022/04/16 00:56:10;;;;;;;0.20;0.20;;;6.90;99.90;;;;;;5090272;28;20049;-79
2022/04/16 00:58:41;;;;;;;0.10;0.10;;;6.90;99.90;;;;;;5074653;28;20162;-82
2022/04/16 01:01:09;;;;;;;0.10;0.10;;;6.90;99.90;;;;;;5106396;28;20047;-81
2022/04/16 01:03:36;;;;;;;0.10;0.10;;;6.90;99.90;;;;;;5089851;28;20044;-81
2022/04/16 01:06:03;;;;;;;0.10;0.10;;;7.50;99.90;;;;;;5090166;28;20051;-79
2022/04/16 01:08:30;;;;;;;0.20;0.20;;;6.80;99.90;;;;;;5073430;28;20036;-79
2022/04/16 01:10:57;;;;;;;0.08;0.08;;;6.80;99.90;;;;;;5057280;28;20075;-81
2022/04/16 01:13:24;;;;;;;0.20;0.20;;;6.80;99.90;;;;;;5089723;28;20438;-82
2022/04/16 01:15:50;;;;;;;0.10;0.10;;;6.90;99.90;;;;;;5073486;28;20058;-79
2022/04/16 01:18:17;;;;;;;0.10;0.10;;;6.90;99.90;;;;;;5056233;28;20463;-82
2022/04/16 01:20:44;;;;;;;0.10;0.10;;;6.90;99.90;;;;;;5073083;28;20072;-79
2022/04/16 01:23:11;;;;;;;0.10;0.10;;;7.00;99.90;;;;;;5105836;28;20046;-81
2022/04/16 01:25:38;;;;;;;0.20;0.20;;;7.00;99.90;;;;;;5089720;28;20051;-81
2022/04/16 01:28:05;;;;;;;0.10;0.10;;;7.00;99.90;;;;;;5106349;28;20405;-79
2022/04/16 01:30:32;;;;;;;0.15;0.15;;;7.10;99.90;;;;;;5072959;28;20044;-82
2022/04/16 01:32:59;;;;;;;0.10;0.10;;;7.10;99.90;;;;;;5072864;28;20509;-82
2022/04/16 01:35:26;;;;;;;0.38;0.22;;;7.20;99.90;;;;;;5089092;28;20079;-82
2022/04/16 01:37:53;;;;;;;0.10;0.10;;;7.20;99.90;;;;;;5089150;28;20090;-81
2022/04/16 01:40:25;;;;;;;0.28;0.28;;;7.20;99.90;;;;;;5056539;28;20139;-81
2022/04/16 01:42:56;;;;;;;0.10;0.10;;;7.80;99.90;;;;;;5089416;28;20451;-79
2022/04/16 01:45:23;;;;;;;0.10;0.10;;;7.20;99.90;;;;;;5089904;28;20036;-81
2022/04/16 01:47:50;;;;;;;0.10;0.10;;;7.20;99.90;;;;;;5056447;28;20482;-82
2022/04/16 01:50:18;;;;;;;0.10;0.10;;;7.20;99.90;;;;;;5072413;28;20048;-79
2022/04/16 01:52:46;;;;;;;0.10;0.10;;;7.20;99.90;;;;;;5072718;28;20052;-82
2022/04/16 01:55:13;;;;;;;0.20;0.20;;;7.30;99.90;;;;;;5105620;28;20413;-81
2022/04/16 01:57:40;;;;;;;0.10;0.10;;;7.30;99.90;;;;;;5056281;28;20049;-82
2022/04/16 02:00:09;;;;;;;0.13;0.13;;;7.40;99.90;;;;;;5105740;28;20048;-79
2022/04/16 02:02:36;;;;;;;0.10;0.10;;;7.40;99.90;;;;;;5072844;28;20181;-79
2022/04/16 02:05:05;;;;;;;0.10;0.10;;;7.50;99.90;;;;;;5105758;28;20048;-81
2022/04/16 02:07:31;;;;;;;0.10;0.10;;;7.60;99.90;;;;;;5105861;28;20040;-82
2022/04/16 02:09:58;;;;;;;6.07;0.55;;;7.60;99.90;;;;;;5072631;28;20382;-79
2022/04/16 02:12:25;;;;;;;0.10;0.10;;;7.60;99.90;;;;;;5088660;28;20060;-82
2022/04/16 02:14:52;;;;;;;0.10;0.10;;;7.60;99.90;;;;;;5072767;28;20127;-82
2022/04/16 02:17:19;;;;;;;0.13;0.13;;;7.70;99.90;;;;;;5072485;28;20049;-79
2022/04/16 02:19:48;;;;;;;0.10;0.10;;;7.70;99.90;;;;;;5089376;28;20036;-81
2022/04/16 02:22:16;;;;;;;0.10;0.10;;;7.90;99.90;;;;;;5072473;28;20711;-80
2022/04/16 02:24:46;;;;;;;0.15;0.15;;;7.70;99.90;;;;;;5072647;28;20037;-79
2022/04/16 02:27:13;;;;;;;0.10;0.10;;;7.70;99.90;;;;;;5072926;28;20040;-82
2022/04/16 02:29:40;;;;;;;0.10;0.10;;;7.70;99.90;;;;;;5089031;28;20037;-79
2022/04/16 02:32:07;;;;;;;0.10;0.10;;;7.70;99.90;;;;;;5088572;28;20082;-79
2022/04/16 02:34:34;;;;;;;0.10;0.10;;;7.70;99.90;;;;;;5072146;28;20040;-81
2022/04/16 02:37:01;;;;;;;0.10;0.10;;;7.70;99.90;;;;;;5072136;28;20117;-82
2022/04/16 02:39:27;;;;;;;0.10;0.10;;;7.70;99.90;;;;;;5071806;28;20151;-79
2022/04/16 02:41:54;;;;;;;0.10;0.10;;;7.70;99.90;;;;;;5072359;28;20039;-81
2022/04/16 02:47:06;;;;;;;0.10;0.10;;;7.60;99.90;;;;;;5091224;28;20056;-79
2022/04/16 02:49:34;;;;;;;0.10;0.10;;;7.60;99.90;;;;;;5057358;28;20044;-79
2022/04/16 02:52:01;;;;;;;0.20;0.20;;;7.60;99.90;;;;;;5092425;28;20049;-79
2022/04/16 02:54:27;;;;;;;0.10;0.10;;;7.60;99.90;;;;;;5092235;28;20572;-80
2022/04/16 02:56:55;;;;;;;0.10;0.10;;;7.60;99.90;;;;;;5059511;28;20036;-79
2022/04/16 02:59:23;;;;;;;0.30;0.30;;;7.50;99.90;;;;;;5092290;28;20036;-82
2022/04/16 03:01:49;;;;;;;0.15;0.15;;;7.50;99.90;;;;;;5092439;28;20047;-79
2022/04/16 03:04:17;;;;;;;0.10;0.10;;;7.80;99.90;;;;;;5092365;28;20044;-79
2022/04/16 03:06:44;;;;;;;0.10;0.10;;;7.40;99.90;;;;;;5092439;28;20040;-79
2022/04/16 03:09:11;;;;;;;0.10;0.10;;;7.50;99.90;;;;;;5092154;28;20040;-79
2022/04/16 03:11:38;;;;;;;0.10;0.10;;;7.40;99.90;;;;;;5075385;28;20051;-79
2022/04/16 03:17:31;;;;;;;0.10;0.10;;;7.40;99.90;;;;;;5109077;28;20048;-79
2022/04/16 03:19:36;;;;;;;0.10;0.10;;;7.40;99.90;;;;;;5094257;28;20036;-82
2022/04/16 03:22:03;;;;;;;0.10;0.10;;;7.40;99.90;;;;;;5092074;28;20040;-79
2022/04/16 03:24:30;;;;;;;0.10;0.10;;;7.40;99.90;;;;;;5108384;28;20119;-82
2022/04/16 03:26:57;;;;;;;0.10;0.10;;;7.40;99.90;;;;;;5108493;28;20394;-81
2022/04/16 03:29:23;;;;;;;0.10;0.10;;;7.40;99.90;;;;;;5091483;28;20131;-80
2022/04/16 03:31:50;;;;;;;0.10;0.10;;;7.40;99.90;;;;;;5075044;28;20044;-79
2022/04/16 03:34:17;;;;;;;0.10;0.10;;;7.30;99.90;;;;;;5091820;28;20052;-79
2022/04/16 03:36:43;;;;;;;0.10;0.10;;;7.40;99.90;;;;;;5091365;28;20140;-79
2022/04/16 03:39:10;;;;;;;0.10;0.10;;;7.30;99.90;;;;;;5075532;28;20044;-79
2022/04/16 03:41:38;;;;;;;0.10;0.10;;;7.30;99.90;;;;;;5075277;28;20166;-79
2022/04/16 03:44:06;;;;;;;0.10;0.10;;;7.30;99.90;;;;;;5109566;28;20127;-81
2022/04/16 03:46:33;;;;;;;0.28;0.28;;;7.30;99.90;;;;;;5106346;28;20505;-82
2022/04/16 03:49:00;;;;;;;0.10;0.10;;;7.30;99.90;;;;;;5091730;28;20044;-81
2022/04/16 03:51:26;;;;;;;0.10;0.10;;;7.30;99.90;;;;;;5076020;28;20396;-81
2022/04/16 03:53:54;;;;;;;0.10;0.10;;;7.30;99.90;;;;;;5078791;28;20032;-82
2022/04/16 04:01:51;;;;;;;0.30;0.30;;;7.30;99.90;;;;;;5084422;28;20124;-82
2022/04/16 04:04:18;;;;;;;0.10;0.10;;;7.30;99.90;;;;;;5081900;28;20152;-80
2022/04/16 04:06:44;;;;;;;0.20;0.20;;;7.30;99.90;;;;;;5059099;28;20051;-80
2022/04/16 04:09:11;;;;;;;0.10;0.10;;;7.30;99.90;;;;;;5055212;28;20090;-82
2022/04/16 04:11:38;;;;;;;0.43;0.20;;;7.20;99.90;;;;;;5066250;28;20402;-82
2022/04/16 04:14:04;;;;;;;0.00;0.00;;;7.20;99.90;;;;;;5086743;28;20045;-80
2022/04/16 04:16:31;;;;;;;0.20;0.20;;;7.20;99.90;;;;;;5073358;28;20409;-82
2022/04/16 04:18:58;;;;;;;0.10;0.10;;;7.20;99.90;;;;;;5056102;28;20417;-82
2022/04/16 04:21:24;;;;;;;0.10;0.10;;;7.30;99.90;;;;;;5096241;28;20041;-82
2022/04/16 04:23:51;;;;;;;0.10;0.10;;;7.50;99.90;;;;;;5090933;28;20047;-82
2022/04/16 04:26:18;;;;;;;0.10;0.10;;;7.20;99.90;;;;;;5073621;28;20489;-80
2022/04/16 04:28:44;;;;;;;0.10;0.10;;;7.20;99.90;;;;;;5090212;28;20048;-82
2022/04/16 04:31:11;;;;;;;0.52;0.52;;;7.20;99.90;;;;;;5057172;28;20041;-82
2022/04/16 04:33:38;;;;;;;0.20;0.20;;;7.20;99.90;;;;;;5089920;28;20048;-82
2022/04/16 04:36:04;;;;;;;0.10;0.10;;;7.30;99.90;;;;;;5073486;28;20060;-82
2022/04/16 04:38:31;;;;;;;0.10;0.10;;;7.40;99.90;;;;;;5106754;28;20045;-80
2022/04/16 04:41:00;;;;;;;0.10;0.10;;;7.20;99.90;;;;;;5090656;28;20047;-82
2022/04/16 04:43:27;;;;;;;0.10;0.10;;;7.20;99.90;;;;;;5090101;28;20102;-81
2022/04/16 04:45:54;;;;;;;0.10;0.10;;;7.20;99.90;;;;;;5050868;28;20417;-80
2022/04/16 04:48:20;;;;;;;0.40;0.40;;;7.20;99.90;;;;;;5089569;28;20047;-82
2022/04/16 04:50:47;;;;;;;0.10;0.10;;;7.30;99.90;;;;;;5090330;28;20051;-79
2022/04/16 04:53:14;;;;;;;0.10;0.10;;;7.20;99.90;;;;;;5087432;28;20067;-82
2022/04/16 04:55:41;;;;;;;0.10;0.10;;;7.20;99.90;;;;;;5082779;28;20123;-82
2022/04/16 04:58:07;;;;;;;0.10;0.10;;;7.20;99.90;;;;;;5072915;28;20125;-82
2022/04/16 05:00:34;;;;;;;0.13;0.13;;;7.20;99.90;;;;;;5078515;28;20090;-80
2022/04/16 05:03:01;;;;;;;0.20;0.20;;;7.20;99.90;;;;;;5070775;28;20094;-82
2022/04/16 05:05:28;;;;;;;0.10;0.10;;;7.20;99.90;;;;;;5123779;28;20386;-82
2022/04/16 05:07:54;;;;;;;0.10;0.10;;;7.20;99.90;;;;;;5072900;28;20055;-80
2022/04/16 05:10:22;;;;;;;0.45;0.38;;;7.20;99.90;;;;;;5090145;28;20085;-82
2022/04/16 05:12:48;;;;;;;0.10;0.10;;;7.20;99.90;;;;;;5088839;28;20040;-82
2022/04/16 05:15:15;;;;;;;0.10;0.10;;;7.20;99.90;;;;;;5056696;28;20048;-82
2022/04/16 05:17:42;;;;;;;0.10;0.10;;;7.20;99.90;;;;;;5089604;28;20036;-79
2022/04/16 05:20:09;;;;;;;0.10;0.10;;;7.20;99.90;;;;;;5057326;28;20043;-82
2022/04/16 05:22:36;;;;;;;0.10;0.10;;;7.20;99.90;;;;;;5089600;28;20037;-79
2022/04/16 05:25:03;;;;;;;0.70;0.65;;;7.20;99.90;;;;;;5056373;28;20052;-79
2022/04/16 05:27:30;;;;;;;0.10;0.10;;;7.20;99.90;;;;;;5069439;28;20097;-82
2022/04/16 05:30:06;;;;;;;0.10;0.10;;;7.10;99.90;;;;;;5053002;28;20482;-82
2022/04/16 05:32:38;;;;;;;0.60;0.30;;;7.10;99.90;;;;;;5086060;28;20041;-80
2022/04/16 05:35:07;;;;;;;0.10;0.10;;;7.00;99.90;;;;;;5086134;28;20041;-80
2022/04/16 05:37:34;;;;;;;0.20;0.20;;;7.00;99.90;;;;;;5105887;28;20057;-80
2022/04/16 05:40:03;;;;;;;0.10;0.10;;;6.90;99.90;;;;;;5106289;28;20032;-82
2022/04/16 05:42:30;;;;;;;0.10;0.10;;;6.90;99.90;;;;;;5072654;28;20408;-82
2022/04/16 05:45:01;;;;;;;0.20;0.20;;;6.90;99.90;;;;;;5056054;28;20044;-80
2022/04/16 05:47:28;;;;;;;0.10;0.10;;;6.80;99.90;;;;;;5105941;28;20107;-82
2022/04/16 05:49:57;;;;;;;0.10;0.10;;;6.80;99.90;;;;;;5089675;28;20040;-80
2022/04/16 05:52:25;;;;;;;0.10;0.10;;;6.80;99.90;;;;;;5072726;28;20041;-82
2022/04/16 05:54:52;;;;;;;0.20;0.20;;;6.90;99.90;;;;;;5072203;28;20540;-80
2022/04/16 05:57:25;;;;;;;0.10;0.10;;;6.80;99.90;;;;;;5089235;28;20477;-80
2022/04/16 05:59:52;;;;;;;0.10;0.10;;;6.90;99.90;;;;;;5089248;28;20033;-82
2022/04/16 06:02:22;;;;;;;0.10;0.10;;;6.80;99.90;;;;;;5072806;28;20063;-79
2022/04/16 06:04:49;;;;;;;0.50;0.50;;;6.80;99.90;;;;;;5072091;28;20119;-82
2022/04/16 06:07:16;;;;;;;0.10;0.10;;;6.70;99.90;;;;;;5072223;28;20128;-82
2022/04/16 06:09:42;;;;;;;0.10;0.10;;;6.80;99.90;;;;;;5089246;28;20039;-79
2022/04/16 06:12:09;;;;;;;0.10;0.10;;;6.90;99.90;;;;;;5055762;28;20397;-81
2022/04/16 06:14:36;;;;;;;0.10;0.10;;;6.80;99.90;;;;;;5056034;28;20083;-82
2022/04/16 06:17:03;;;;;;;0.10;0.10;;;6.80;99.90;;;;;;5088729;28;20094;-82
2022/04/16 06:19:29;;;;;;;0.10;0.10;;;6.80;99.90;;;;;;5072940;28;20068;-80
2022/04/16 06:21:56;;;;;;;0.10;0.10;;;7.30;99.90;;;;;;5055638;28;20560;-82
2022/04/16 06:24:23;;;;;;;0.10;0.10;;;7.40;99.90;;;;;;5090575;28;20036;-82
2022/04/16 06:26:49;;;;;;;0.10;0.10;;;6.80;99.90;;;;;;5059653;28;20115;-80
2022/04/16 06:29:16;;;;;;;0.10;0.10;;;6.80;99.90;;;;;;5093038;28;20456;-82
2022/04/16 06:31:43;;;;;;;0.10;0.10;;;7.60;99.90;;;;;;5076454;28;20050;-80
2022/04/16 06:34:10;;;;;;;0.40;0.40;;;7.70;99.90;;;;;;5075940;28;20041;-82
2022/04/16 06:36:38;;;;;;;0.10;0.10;;;6.90;99.90;;;;;;5075734;28;20049;-82
2022/04/16 06:39:04;;;;;;;0.10;0.10;;;7.00;99.90;;;;;;5108933;28;20094;-80
2022/04/16 06:41:31;;;;;;;0.20;0.20;;;7.30;99.90;;;;;;5092634;28;20037;-82
2022/04/16 06:43:58;;;;;;;0.10;0.10;;;6.90;99.90;;;;;;5075920;28;20166;-80
2022/04/16 06:46:25;;;;;;;0.10;0.10;;;7.50;99.90;;;;;;5092502;28;20040;-81
2022/04/16 06:48:51;;;;;;;0.10;0.10;;;6.90;99.90;;;;;;5108806;28;20055;-80
2022/04/16 06:51:18;;;;;;;0.10;0.10;;;7.00;99.90;;;;;;5075839;28;20047;-82
2022/04/16 06:53:45;;;;;;;0.10;0.10;;;7.10;99.90;;;;;;5076376;28;20047;-79
2022/04/16 06:56:11;;;;;;;0.10;0.10;;;7.20;99.90;;;;;;5109219;28;20056;-82
2022/04/16 06:58:38;;;;;;;0.10;0.10;;;7.20;99.90;;;;;;5075743;28;20041;-80
2022/04/16 07:01:05;;;;;;;0.10;0.10;;;7.30;99.90;;;;;;5075478;28;20032;-80
2022/04/16 07:03:31;;;;;;;0.10;0.10;;;7.50;99.90;;;;;;5092485;28;20120;-81
2022/04/16 07:05:58;;;;;;;1.20;0.40;;;7.50;99.90;;;;;;5073732;28;20497;-80
2022/04/16 07:08:25;;;;;;;0.10;0.10;;;7.50;99.90;;;;;;5082577;28;20044;-80
2022/04/16 07:10:52;;;;;;;0.10;0.10;;;7.60;99.90;;;;;;5075123;28;20037;-81
2022/04/16 07:13:19;;;;;;;0.10;0.10;;;7.70;99.90;;;;;;5074507;28;20040;-79
2022/04/16 07:15:45;;;;;;;0.10;0.10;;;7.90;99.90;;;;;;5062830;28;20047;-80
2022/04/16 07:18:12;;;;;;;0.10;0.10;;;7.80;99.90;;;;;;5103981;28;20089;-80
2022/04/16 07:20:40;;;;;;;0.30;0.30;;;7.90;99.90;;;;;;5058991;28;20048;-82
2022/04/16 07:23:07;;;;;;;0.10;0.10;;;7.90;99.90;;;;;;5072889;28;20518;-82
2022/04/16 07:25:35;;;;;;;0.10;0.10;;;8.10;99.90;;;;;;5084290;28;20032;-80
2022/04/16 07:28:01;;;;;;;0.10;0.10;;;8.10;99.90;;;;;;5081930;28;20045;-80
2022/04/16 07:30:28;;;;;;;0.10;0.10;;;8.20;99.90;;;;;;5091749;28;20052;-80
2022/04/16 07:32:55;;;;;;;0.10;0.10;;;8.40;99.90;;;;;;5075316;28;20040;-82
2022/04/16 07:35:22;;;;;;;0.10;0.10;;;8.30;99.90;;;;;;5091159;28;20519;-79
2022/04/16 07:37:51;;;;;;;0.10;0.10;;;8.40;99.90;;;;;;5074655;28;20053;-82
2022/04/16 07:40:17;;;;;;;0.10;0.10;;;8.50;99.90;;;;;;5088143;28;20463;-79
2022/04/16 07:42:44;;;;;;;0.10;0.10;;;8.60;99.90;;;;;;5064132;28;20037;-79
2022/04/16 07:45:11;;;;;;;0.10;0.10;;;8.70;99.90;;;;;;5087856;28;20037;-82
2022/04/16 07:47:37;;;;;;;0.10;0.10;;;8.80;99.90;;;;;;5071662;28;20490;-79
2022/04/16 07:50:05;;;;;;;0.30;0.30;;;8.80;99.90;;;;;;5081709;28;20459;-79
2022/04/16 07:52:31;;;;;;;0.10;0.10;;;8.90;99.90;;;;;;5074711;28;20047;-82
2022/04/16 07:54:58;;;;;;;0.10;0.10;;;9.00;99.90;;;;;;5074237;28;20041;-79
2022/04/16 07:57:25;;;;;;;0.10;0.10;;;9.10;99.90;;;;;;5074538;28;20075;-81
2022/04/16 07:59:53;;;;;;;0.10;0.10;;;9.20;99.90;;;;;;5074092;28;20388;-79
2022/04/16 08:02:21;;;;;;;0.10;0.10;;;9.30;99.90;;;;;;5074473;28;20398;-78
2022/04/16 08:04:47;;;;;;;0.10;0.10;;;9.50;99.90;;;;;;5091027;28;20036;-81
2022/04/16 08:07:14;;;;;;;0.10;0.10;;;9.90;99.90;;;;;;5090378;28;20094;-79
2022/04/16 08:09:41;;;;;;;0.10;0.10;;;9.70;99.90;;;;;;5090808;28;20052;-82
2022/04/16 08:12:08;;;;;;;0.10;0.10;;;9.80;99.90;;;;;;5056994;28;20079;-82
2022/04/16 08:14:35;;;;;;;0.10;0.10;;;9.80;99.90;;;;;;5073662;28;20560;-82
2022/04/16 08:17:01;;;;;;;0.10;0.10;;;10.00;99.90;;;;;;5102427;28;20119;-82
2022/04/16 08:19:29;;;;;;;0.10;0.10;;;10.00;99.90;;;;;;5115147;28;20029;-81
2022/04/16 08:21:56;;;;;;;0.00;0.00;;;10.00;99.90;;;;;;5074373;28;20094;-82
2022/04/16 08:24:39;;;;;;;0.10;0.10;;;10.10;99.90;;;;;;5090376;28;20511;-80
2022/04/16 08:27:06;;;;;;;0.00;0.00;;;10.10;99.90;;;;;;5074178;28;20055;-80
2022/04/16 08:29:34;;;;;;;0.00;0.00;;;10.10;98.50;;;;;;5070997;28;20132;-84
2022/04/16 08:32:01;;;;;;;0.10;0.10;;;10.20;98.40;;;;;;5074066;28;20063;-82
2022/04/16 08:34:28;;;;;;;0.10;0.10;;;10.20;98.10;;;;;;5074238;28;20047;-85
2022/04/16 08:36:54;;;;;;;0.10;0.10;;;10.30;99.90;;;;;;5107239;28;20417;-85
2022/04/16 08:39:22;;;;;;;0.10;0.10;;;10.50;99.90;;;;;;5057556;28;20552;-85
2022/04/16 08:41:49;;;;;;;0.00;0.00;;;10.50;96.00;;;;;;5090771;28;20036;-80
2022/04/16 08:44:19;;;;;;;0.00;0.00;;;10.60;99.10;;;;;;5073920;28;20040;-80
2022/04/16 08:46:46;;;;;;;0.10;0.10;;;10.60;95.40;;;;;;5090919;28;20578;-84
2022/04/16 08:49:15;;;;;;;0.10;0.10;;;10.70;98.00;;;;;;5073951;28;20044;-85
2022/04/16 08:51:43;;;;;;;0.10;0.10;;;10.70;96.70;;;;;;5070758;28;20037;-80
2022/04/16 08:54:10;;;;;;;0.10;0.10;;;10.90;98.10;;;;;;5086738;28;20037;-80
2022/04/16 08:56:39;;;;;;;0.00;0.00;;;10.90;94.20;;;;;;5053955;28;20071;-80
2022/04/16 08:59:05;;;;;;;0.00;0.00;;;10.90;94.00;;;;;;5070041;28;20563;-80
2022/04/16 09:01:34;;;;;;;0.03;0.03;;;10.90;93.40;;;;;;5071186;28;20041;-85
2022/04/16 09:04:01;;;;;;;0.00;0.00;;;11.10;93.70;;;;;;5086654;28;20099;-84
2022/04/16 09:06:27;;;;;;;0.05;0.05;;;11.10;95.80;;;;;;5069952;28;20045;-84
2022/04/16 09:08:54;;;;;;;0.10;0.10;;;11.20;96.70;;;;;;5086734;28;20079;-84
2022/04/16 09:11:24;;;;;;;0.00;0.00;;;11.30;94.50;;;;;;5053436;28;20106;-84
2022/04/16 09:13:52;;;;;;;0.05;0.05;;;11.40;94.50;;;;;;5070130;28;20041;-85
2022/04/16 09:16:19;;;;;;;0.00;0.00;;;11.50;95.70;;;;;;5086324;28;20051;-80
2022/04/16 09:18:51;;;;;;;0.10;0.10;;;11.40;92.60;;;;;;5086760;28;20379;-85
2022/04/16 09:21:20;;;;;;;0.00;0.00;;;11.40;90.40;;;;;;5086189;28;20040;-84
2022/04/16 09:23:53;;;;;;;0.00;0.00;;;11.50;92.20;;;;;;5070085;28;20040;-80
2022/04/16 09:26:32;;;;;;;0.08;0.08;;;11.60;92.50;;;;;;5069303;28;20146;-85
2022/04/16 09:29:09;;;;;;;0.00;0.00;;;11.60;93.20;;;;;;5069772;28;20036;-80
2022/04/16 09:31:40;;;;;;;0.00;0.00;;;11.70;94.40;;;;;;5073812;28;20109;-80
2022/04/16 09:34:15;;;;;;;0.00;0.00;;;11.80;93.30;;;;;;5090655;28;20040;-84
2022/04/16 09:36:44;;;;;;;0.00;0.00;;;11.80;92.40;;;;;;5106188;28;20079;-80
2022/04/16 09:39:11;;;;;;;0.00;0.00;;;11.80;91.20;;;;;;5105701;28;20093;-83
2022/04/16 09:41:40;;;;;;;0.13;0.10;;;11.90;93.40;;;;;;5089565;28;20039;-84
2022/04/16 09:44:36;;;;;;;0.00;0.00;;;11.90;91.00;;;;;;5106269;28;20386;-85
2022/04/16 09:47:03;;;;;;;0.00;0.00;;;12.00;92.00;;;;;;5085525;28;20141;-80
2022/04/16 09:49:33;;;;;;;0.00;0.00;;;12.10;94.60;;;;;;5106020;28;20040;-85
2022/04/16 09:52:03;;;;;;;0.00;0.00;;;12.20;91.80;;;;;;5073930;28;20165;-80
2022/04/16 09:54:33;;;;;;;0.00;0.00;;;12.10;90.70;;;;;;5091899;28;20040;-81
2022/04/16 09:57:02;;;;;;;0.00;0.00;;;12.20;92.80;;;;;;5086227;28;20037;-81
2022/04/16 09:59:34;;;;;;;0.00;0.00;;;12.30;89.90;;;;;;5096221;28;20075;-86
2022/04/16 10:02:02;;;;;;;0.80;0.22;;;12.40;89.60;;;;;;5088625;28;20033;-81
2022/04/16 10:04:29;;;;;;;0.00;0.00;;;12.50;92.80;;;;;;5053022;28;20493;-80
2022/04/16 10:06:56;;;;;;;0.00;0.00;;;12.60;90.40;;;;;;5069109;28;20540;-80
2022/04/16 10:09:24;;;;;;;0.00;0.00;;;12.50;90.30;;;;;;5069480;28;20076;-84
2022/04/16 10:14:58;;;;;;;0.00;0.00;;;12.60;90.30;;;;;;5106808;28;20416;-84
2022/04/16 10:17:35;;;;;;;0.00;0.00;;;12.60;87.60;;;;;;5085113;28;20045;-79
2022/04/16 10:20:16;;;;;;;0.00;0.00;;;12.70;91.50;;;;;;5085750;28;20043;-86
2022/04/16 10:23:07;;;;;;;0.00;0.00;;;12.70;90.40;;;;;;5086373;28;20048;-80
2022/04/16 10:25:39;;;;;;;0.00;0.00;;;12.80;91.10;;;;;;5071294;28;20064;-87
2022/04/16 10:28:08;;;;;;;0.00;0.00;;;12.90;89.00;;;;;;5089382;28;20131;-86
2022/04/16 10:30:41;;;;;;;0.00;0.00;;;12.90;86.00;;;;;;5089420;28;20032;-86
2022/04/16 10:33:21;;;;;;;0.00;0.00;;;12.90;90.00;;;;;;5089511;28;20041;-85
2022/04/16 10:35:56;;;;;;;0.00;0.00;;;13.00;88.90;;;;;;5142914;28;20393;-85
2022/04/16 10:38:24;;;;;;;0.00;0.00;;;13.10;90.20;;;;;;5100755;28;20044;-80
2022/04/16 10:40:55;;;;;;;0.00;0.00;;;13.10;89.60;;;;;;5089150;28;20048;-85
2022/04/16 10:43:30;;;;;;;0.00;0.00;;;13.30;88.70;;;;;;5092270;28;20048;-84
2022/04/16 10:46:00;;;;;;;0.00;0.00;;;13.20;85.20;;;;;;5091626;28;20052;-86
2022/04/16 10:48:48;;;;;;;0.00;0.00;;;13.30;88.20;;;;;;5088663;28;20047;-79
2022/04/16 10:51:21;;;;;;;0.00;0.00;;;13.40;81.60;;;;;;5089001;28;20109;-82
2022/04/16 10:53:47;;;;;;;0.00;0.00;;;13.30;79.80;;;;;;5088803;28;20154;-82
2022/04/16 10:56:22;;;;;;;0.00;0.00;;;13.30;81.00;;;;;;5072172;28;20124;-81
2022/04/16 10:59:00;;;;;;;0.00;0.00;;;13.20;77.40;;;;;;5088773;28;20054;-84
2022/04/16 11:01:30;;;;;;;0.00;0.00;;;13.20;73.60;;;;;;5052155;28;20037;-80
2022/04/16 11:03:57;;;;;;;0.00;0.00;;;13.30;80.10;;;;;;5104523;28;20409;-80
2022/04/16 11:06:34;;;;;;;0.00;0.00;;;13.30;80.20;;;;;;5108938;28;20492;-80
2022/04/16 11:09:01;;;;;;;0.00;0.00;;;13.40;77.00;;;;;;5072544;28;20048;-79
2022/04/16 11:11:28;;;;;;;0.00;0.00;;;13.50;82.40;;;;;;5101850;28;20036;-83
2022/04/16 11:13:56;;;;;;;0.00;0.00;;;13.50;79.00;;;;;;5109552;28;20043;-79
2022/04/16 11:16:23;;;;;;;0.00;0.00;;;13.60;77.00;;;;;;5111865;28;20058;-84
2022/04/16 11:18:50;;;;;;;0.00;0.00;;;13.60;78.60;;;;;;5103785;28;20037;-84
2022/04/16 11:21:21;;;;;;;0.10;0.10;;;13.70;79.40;;;;;;5108826;28;20072;-79
2022/04/16 11:23:50;;;;;;;0.00;0.00;;;13.50;73.20;;;;;;5108632;28;20066;-80
2022/04/16 11:34:36;;;;;;;0.00;0.00;;;13.70;76.30;;;;;;5090461;28;20106;-84
2022/04/16 11:37:05;;;;;;;0.00;0.00;;;13.60;71.20;;;;;;5072447;28;20041;-80
2022/04/16 11:39:32;;;;;;;0.00;0.00;;;13.60;70.70;;;;;;5078663;28;20552;-80
2022/04/16 11:41:59;;;;;;;0.00;0.00;;;13.60;71.10;;;;;;5092507;28;20165;-84
2022/04/16 11:44:42;;;;;;;0.00;0.00;;;13.60;74.80;;;;;;5060723;28;20048;-80
2022/04/16 11:47:13;;;;;;;0.00;0.00;;;13.60;71.40;;;;;;5078327;28;20413;-84
2022/04/16 11:50:01;;;;;;;0.00;0.00;;;13.70;74.20;;;;;;5094013;28;20048;-84
2022/04/16 11:52:30;;;;;;;0.05;0.05;;;13.70;72.70;;;;;;5083202;28;20401;-84
2022/04/16 11:55:14;;;;;;;0.00;0.00;;;13.60;70.40;;;;;;5094867;28;20127;-80
2022/04/16 11:57:46;;;;;;;0.10;0.10;;;13.60;66.80;;;;;;5107753;28;20041;-80
2022/04/16 12:00:14;;;;;;;0.00;0.00;;;13.60;66.40;;;;;;5107850;28;20498;-80
2022/04/16 12:02:47;;;;;;;0.00;0.00;;;13.70;69.40;;;;;;5074363;28;20036;-84
2022/04/16 12:05:15;;;;;;;0.00;0.00;;;13.80;71.20;;;;;;5091228;28;20489;-83
2022/04/16 12:07:48;;;;;;;0.00;0.00;;;13.80;66.80;;;;;;5091087;28;20098;-84
2022/04/16 12:10:16;;;;;;;0.00;0.00;;;13.80;64.30;;;;;;5091084;28;20493;-80
2022/04/16 12:12:52;;;;;;;0.00;0.00;;;13.90;64.80;;;;;;5091206;28;20040;-84
2022/04/16 12:15:24;;;;;;;0.00;0.00;;;13.90;65.00;;;;;;5102678;28;20141;-80
2022/04/16 12:17:52;;;;;;;0.00;0.00;;;14.00;66.30;;;;;;5086450;28;20032;-84
2022/04/16 12:20:23;;;;;;;0.00;0.00;;;14.00;64.90;;;;;;5104144;28;20041;-84
2022/04/16 12:22:49;;;;;;;0.00;0.00;;;13.90;63.50;;;;;;5090340;28;20041;-80
2022/04/16 12:25:21;;;;;;;0.05;0.05;;;14.00;63.80;;;;;;5107906;28;20079;-80
2022/04/16 12:27:49;;;;;;;0.00;0.00;;;14.10;65.60;;;;;;5107149;28;20128;-84
2022/04/16 12:30:24;;;;;;;0.10;0.10;;;14.10;64.10;;;;;;5107798;28;20041;-80
2022/04/16 12:32:59;;;;;;;0.03;0.03;;;14.20;66.50;;;;;;5090895;28;20043;-84
2022/04/16 12:35:31;;;;;;;0.00;0.00;;;14.20;63.50;;;;;;5090717;28;20059;-83
2022/04/16 12:37:59;;;;;;;0.00;0.00;;;14.20;63.10;;;;;;5090620;28;20049;-80
2022/04/16 12:40:27;;;;;;;0.00;0.00;;;14.30;64.60;;;;;;5074628;28;20121;-80
2022/04/16 12:42:56;;;;;;;0.00;0.00;;;14.20;61.00;;;;;;5103649;28;20032;-81
2022/04/16 12:45:24;;;;;;;0.00;0.00;;;14.10;62.40;;;;;;5099770;28;20055;-80
2022/04/16 12:47:52;;;;;;;0.00;0.00;;;14.20;63.70;;;;;;5106491;28;20048;-84
2022/04/16 12:50:19;;;;;;;0.00;0.00;;;14.20;63.00;;;;;;5103774;28;20047;-80
2022/04/16 12:52:46;;;;;;;0.00;0.00;;;14.20;61.70;;;;;;5057904;28;20062;-80
2022/04/16 12:55:14;;;;;;;0.00;0.00;;;14.30;64.30;;;;;;5073775;28;20075;-80
2022/04/16 12:57:43;;;;;;;0.00;0.00;;;14.40;63.70;;;;;;5086541;28;20044;-80
2022/04/16 13:00:11;;;;;;;0.00;0.00;;;14.40;64.30;;;;;;5059446;28;20120;-80
2022/04/16 13:02:42;;;;;;;0.00;0.00;;;14.50;64.30;;;;;;5067711;28;20035;-80
2022/04/16 13:05:09;;;;;;;0.00;0.00;;;14.40;61.90;;;;;;5084625;28;20048;-80
2022/04/16 13:07:36;;;;;;;0.00;0.00;;;14.40;63.50;;;;;;5057185;28;20036;-84
2022/04/16 13:10:07;;;;;;;0.00;0.00;;;14.30;64.40;;;;;;5110837;28;20036;-80
2022/04/16 13:12:34;;;;;;;0.00;0.00;;;14.40;64.80;;;;;;5106343;28;20071;-80
2022/04/16 13:15:01;;;;;;;0.00;0.00;;;14.40;63.50;;;;;;5113829;28;20075;-84
2022/04/16 13:17:28;;;;;;;0.00;0.00;;;14.40;62.40;;;;;;5143750;28;20047;-84
2022/04/16 13:19:55;;;;;;;0.08;0.08;;;14.30;61.30;;;;;;5143980;28;20040;-80
2022/04/16 13:22:22;;;;;;;0.00;0.00;;;14.40;62.60;;;;;;5110212;28;20129;-80